sensor_id;sensor_type;location;lat;lon;timestamp;temperature;humidity
64987;DHT22;67903;52.108;9.358;2023-08-07T00:00:11;13.90;99.90
64987;DHT22;67903;52.108;9.358;2023-08-07T00:02:56;13.70;99.90
64987;DHT22;67903;52.108;9.358;2023-08-07T00:05:45;13.70;99.90
64987;DHT22;67903;52.108;9.358;2023-08-07T00:08:30;13.70;99.90
64987;DHT22;67903;52.108;9.358;2023-08-07T00:11:16;13.70;99.90
64987;DHT22;67903;52.108;9.358;2023-08-07T00:14:02;13.70;99.90
64987;DHT22;67903;52.108;9.358;2023-08-07T00:16:47;13.70;99.90
64987;DHT22;67903;52.108;9.358;2023-08-07T00:19:33;13.80;99.90
64987;DHT22;67903;52.108;9.358;2023-08-07T00:22:18;13.70;99.90
64987;DHT22;67903;52.108;9.358;2023-08-07T00:25:04;13.70;99.90
64987;DHT22;67903;52.108;9.358;2023-08-07T00:27:50;13.70;99.90
64987;DHT22;67903;52.108;9.358;2023-08-07T00:30:35;13.70;99.90
64987;DHT22;67903;52.108;9.358;2023-08-07T00:33:21;13.60;99.90
64987;DHT22;67903;52.108;9.358;2023-08-07T00:36:07;13.60;99.90
64987;DHT22;67903;52.108;9.358;2023-08-07T00:38:53;13.70;99.90
64987;DHT22;67903;52.108;9.358;2023-08-07T00:41:39;13.70;99.90
64987;DHT22;67903;52.108;9.358;2023-08-07T00:44:25;13.60;99.90
64987;DHT22;67903;52.108;9.358;2023-08-07T00:47:10;13.60;99.90
64987;DHT22;67903;52.108;9.358;2023-08-07T00:49:58;13.60;99.90
64987;DHT22;67903;52.108;9.358;2023-08-07T00:52:43;13.60;99.90
64987;DHT22;67903;52.108;9.358;2023-08-07T00:55:29;13.60;99.90
64987;DHT22;67903;52.108;9.358;2023-08-07T00:58:15;13.60;99.90
64987;DHT22;67903;52.108;9.358;2023-08-07T01:01:01;13.60;99.90
64987;DHT22;67903;52.108;9.358;2023-08-07T01:03:46;13.70;99.90
64987;DHT22;67903;52.108;9.358;2023-08-07T01:06:32;13.60;99.90
64987;DHT22;67903;52.108;9.358;2023-08-07T01:09:18;13.60;99.90
64987;DHT22;67903;52.108;9.358;2023-08-07T01:12:16;13.60;99.90
64987;DHT22;67903;52.108;9.358;2023-08-07T01:15:23;13.60;99.90
64987;DHT22;67903;52.108;9.358;2023-08-07T01:18:11;13.50;99.90
64987;DHT22;67903;52.108;9.358;2023-08-07T01:20:56;13.50;99.90
64987;DHT22;67903;52.108;9.358;2023-08-07T01:23:42;13.60;99.90
64987;DHT22;67903;52.108;9.358;2023-08-07T01:26:27;13.60;99.90
64987;DHT22;67903;52.108;9.358;2023-08-07T01:29:21;13.70;99.90
64987;DHT22;67903;52.108;9.358;2023-08-07T01:32:13;13.60;99.90
64987;DHT22;67903;52.108;9.358;2023-08-07T01:35:02;13.50;99.90
64987;DHT22;67903;52.108;9.358;2023-08-07T01:37:52;13.50;99.90
64987;DHT22;67903;52.108;9.358;2023-08-07T01:40:39;13.50;99.90
64987;DHT22;67903;52.108;9.358;2023-08-07T01:43:26;13.50;99.90
64987;DHT22;67903;52.108;9.358;2023-08-07T01:46:12;13.50;99.90
64987;DHT22;67903;52.108;9.358;2023-08-07T01:48:57;13.50;99.90
64987;DHT22;67903;52.108;9.358;2023-08-07T01:51:43;13.50;99.90
64987;DHT22;67903;52.108;9.358;2023-08-07T01:54:28;13.60;99.90
64987;DHT22;67903;52.108;9.358;2023-08-07T01:57:14;13.60;99.90
64987;DHT22;67903;52.108;9.358;2023-08-07T01:59:59;13.50;99.90
64987;DHT22;67903;52.108;9.358;2023-08-07T02:02:45;13.70;99.90
64987;DHT22;67903;52.108;9.358;2023-08-07T02:05:32;13.50;99.90
64987;DHT22;67903;52.108;9.358;2023-08-07T02:08:19;13.50;99.90
64987;DHT22;67903;52.108;9.358;2023-08-07T02:11:05;13.60;99.90
64987;DHT22;67903;52.108;9.358;2023-08-07T02:13:51;13.60;99.90
64987;DHT22;67903;52.108;9.358;2023-08-07T02:16:36;13.50;99.90
64987;DHT22;67903;52.108;9.358;2023-08-07T02:19:22;13.50;99.90
64987;DHT22;67903;52.108;9.358;2023-08-07T02:22:07;13.60;99.90
64987;DHT22;67903;52.108;9.358;2023-08-07T02:24:53;13.50;99.90
64987;DHT22;67903;52.108;9.358;2023-08-07T02:27:38;13.60;99.90
64987;DHT22;67903;52.108;9.358;2023-08-07T02:30:24;13.60;99.90
64987;DHT22;67903;52.108;9.358;2023-08-07T02:33:10;13.60;99.90
64987;DHT22;67903;52.108;9.358;2023-08-07T02:35:56;13.60;99.90
64987;DHT22;67903;52.108;9.358;2023-08-07T02:38:41;13.60;99.90
64987;DHT22;67903;52.108;9.358;2023-08-07T02:41:27;13.60;99.90
64987;DHT22;67903;52.108;9.358;2023-08-07T02:44:12;13.50;99.90
64987;DHT22;67903;52.108;9.358;2023-08-07T02:46:58;13.40;99.90
64987;DHT22;67903;52.108;9.358;2023-08-07T02:49:43;13.40;99.90
64987;DHT22;67903;52.108;9.358;2023-08-07T02:52:29;13.40;99.90
64987;DHT22;67903;52.108;9.358;2023-08-07T02:55:15;13.40;99.90
64987;DHT22;67903;52.108;9.358;2023-08-07T02:58:00;13.50;99.90
64987;DHT22;67903;52.108;9.358;2023-08-07T03:00:45;13.60;99.90
64987;DHT22;67903;52.108;9.358;2023-08-07T03:03:31;13.60;99.90
64987;DHT22;67903;52.108;9.358;2023-08-07T03:06:17;13.50;99.90
64987;DHT22;67903;52.108;9.358;2023-08-07T03:09:03;13.60;99.90
64987;DHT22;67903;52.108;9.358;2023-08-07T03:11:48;13.60;99.90
64987;DHT22;67903;52.108;9.358;2023-08-07T03:14:34;13.60;99.90
64987;DHT22;67903;52.108;9.358;2023-08-07T03:17:20;13.50;99.90
64987;DHT22;67903;52.108;9.358;2023-08-07T03:20:06;13.50;99.90
64987;DHT22;67903;52.108;9.358;2023-08-07T03:22:52;13.70;99.90
64987;DHT22;67903;52.108;9.358;2023-08-07T03:25:38;13.60;99.90
64987;DHT22;67903;52.108;9.358;2023-08-07T03:28:23;13.60;99.90
64987;DHT22;67903;52.108;9.358;2023-08-07T03:31:09;13.60;99.90
64987;DHT22;67903;52.108;9.358;2023-08-07T03:33:55;13.70;99.90
64987;DHT22;67903;52.108;9.358;2023-08-07T03:36:41;13.70;99.90
64987;DHT22;67903;52.108;9.358;2023-08-07T03:39:26;13.70;99.90
64987;DHT22;67903;52.108;9.358;2023-08-07T03:42:11;13.70;99.90
64987;DHT22;67903;52.108;9.358;2023-08-07T03:44:57;13.90;99.90
64987;DHT22;67903;52.108;9.358;2023-08-07T03:47:43;13.90;99.90
64987;DHT22;67903;52.108;9.358;2023-08-07T03:50:29;13.90;99.90
64987;DHT22;67903;52.108;9.358;2023-08-07T03:53:16;13.90;99.90
64987;DHT22;67903;52.108;9.358;2023-08-07T03:56:04;14.00;99.90
64987;DHT22;67903;52.108;9.358;2023-08-07T03:58:51;14.00;99.90
64987;DHT22;67903;52.108;9.358;2023-08-07T04:01:39;13.90;99.80
64987;DHT22;67903;52.108;9.358;2023-08-07T04:04:24;14.00;99.90
64987;DHT22;67903;52.108;9.358;2023-08-07T04:07:10;13.90;99.90
64987;DHT22;67903;52.108;9.358;2023-08-07T04:09:55;13.90;99.90
64987;DHT22;67903;52.108;9.358;2023-08-07T04:12:41;14.10;99.90
64987;DHT22;67903;52.108;9.358;2023-08-07T04:15:27;14.10;99.10
64987;DHT22;67903;52.108;9.358;2023-08-07T04:18:12;14.00;99.90
64987;DHT22;67903;52.108;9.358;2023-08-07T04:20:58;13.90;99.90
64987;DHT22;67903;52.108;9.358;2023-08-07T04:23:44;13.90;99.50
64987;DHT22;67903;52.108;9.358;2023-08-07T04:26:29;13.90;99.70
64987;DHT22;67903;52.108;9.358;2023-08-07T04:29:15;14.00;99.70
64987;DHT22;67903;52.108;9.358;2023-08-07T04:32:00;13.90;98.40
64987;DHT22;67903;52.108;9.358;2023-08-07T04:34:46;14.00;98.40
64987;DHT22;67903;52.108;9.358;2023-08-07T04:37:31;14.00;99.10
64987;DHT22;67903;52.108;9.358;2023-08-07T04:40:17;14.00;97.60
64987;DHT22;67903;52.108;9.358;2023-08-07T04:43:02;14.00;97.90
64987;DHT22;67903;52.108;9.358;2023-08-07T04:45:48;13.90;99.00
64987;DHT22;67903;52.108;9.358;2023-08-07T04:48:34;13.90;99.50
64987;DHT22;67903;52.108;9.358;2023-08-07T04:51:19;14.00;97.50
64987;DHT22;67903;52.108;9.358;2023-08-07T04:54:05;13.90;98.70
64987;DHT22;67903;52.108;9.358;2023-08-07T04:56:51;14.00;97.00
64987;DHT22;67903;52.108;9.358;2023-08-07T04:59:36;14.10;97.70
64987;DHT22;67903;52.108;9.358;2023-08-07T05:02:22;14.00;99.00
64987;DHT22;67903;52.108;9.358;2023-08-07T05:05:08;14.20;97.20
64987;DHT22;67903;52.108;9.358;2023-08-07T05:07:55;14.30;96.30
64987;DHT22;67903;52.108;9.358;2023-08-07T05:10:41;14.20;98.20
64987;DHT22;67903;52.108;9.358;2023-08-07T05:13:26;14.10;97.70
64987;DHT22;67903;52.108;9.358;2023-08-07T05:16:12;14.10;96.00
64987;DHT22;67903;52.108;9.358;2023-08-07T05:18:57;14.30;95.70
64987;DHT22;67903;52.108;9.358;2023-08-07T05:21:43;14.30;96.70
64987;DHT22;67903;52.108;9.358;2023-08-07T05:24:28;14.30;96.00
64987;DHT22;67903;52.108;9.358;2023-08-07T05:27:19;14.30;95.10
64987;DHT22;67903;52.108;9.358;2023-08-07T05:30:05;14.30;95.30
64987;DHT22;67903;52.108;9.358;2023-08-07T05:32:51;14.30;95.90
64987;DHT22;67903;52.108;9.358;2023-08-07T05:35:38;14.40;95.20
64987;DHT22;67903;52.108;9.358;2023-08-07T05:38:23;14.40;95.50
64987;DHT22;67903;52.108;9.358;2023-08-07T05:41:09;14.50;95.00
64987;DHT22;67903;52.108;9.358;2023-08-07T05:43:54;14.50;93.70
64987;DHT22;67903;52.108;9.358;2023-08-07T05:46:40;14.50;92.60
64987;DHT22;67903;52.108;9.358;2023-08-07T05:49:26;14.50;92.10
64987;DHT22;67903;52.108;9.358;2023-08-07T05:52:11;14.60;92.10
64987;DHT22;67903;52.108;9.358;2023-08-07T05:54:57;14.50;92.80
64987;DHT22;67903;52.108;9.358;2023-08-07T05:57:42;14.50;92.40
64987;DHT22;67903;52.108;9.358;2023-08-07T06:00:28;14.50;91.70
64987;DHT22;67903;52.108;9.358;2023-08-07T06:03:13;14.60;92.10
64987;DHT22;67903;52.108;9.358;2023-08-07T06:05:59;14.60;90.90
64987;DHT22;67903;52.108;9.358;2023-08-07T06:08:44;14.70;91.60
64987;DHT22;67903;52.108;9.358;2023-08-07T06:11:30;14.80;90.60
64987;DHT22;67903;52.108;9.358;2023-08-07T06:14:15;14.90;89.60
64987;DHT22;67903;52.108;9.358;2023-08-07T06:17:02;15.00;89.70
64987;DHT22;67903;52.108;9.358;2023-08-07T06:19:47;15.00;88.70
64987;DHT22;67903;52.108;9.358;2023-08-07T06:22:33;15.00;89.20
64987;DHT22;67903;52.108;9.358;2023-08-07T06:25:18;15.00;89.00
64987;DHT22;67903;52.108;9.358;2023-08-07T06:28:04;15.00;88.20
64987;DHT22;67903;52.108;9.358;2023-08-07T06:30:50;15.20;85.60
64987;DHT22;67903;52.108;9.358;2023-08-07T06:33:36;15.00;86.20
64987;DHT22;67903;52.108;9.358;2023-08-07T06:36:22;15.10;86.00
64987;DHT22;67903;52.108;9.358;2023-08-07T06:39:07;15.10;86.00
64987;DHT22;67903;52.108;9.358;2023-08-07T06:41:53;15.20;85.90
64987;DHT22;67903;52.108;9.358;2023-08-07T06:44:44;15.20;85.30
64987;DHT22;67903;52.108;9.358;2023-08-07T06:47:30;15.20;85.20
64987;DHT22;67903;52.108;9.358;2023-08-07T06:50:15;15.30;85.00
64987;DHT22;67903;52.108;9.358;2023-08-07T06:53:01;15.30;85.20
64987;DHT22;67903;52.108;9.358;2023-08-07T06:55:46;15.30;85.10
64987;DHT22;67903;52.108;9.358;2023-08-07T06:58:32;15.40;84.50
64987;DHT22;67903;52.108;9.358;2023-08-07T07:01:17;15.50;83.40
64987;DHT22;67903;52.108;9.358;2023-08-07T07:04:03;15.60;83.70
64987;DHT22;67903;52.108;9.358;2023-08-07T07:06:49;15.10;92.10
64987;DHT22;67903;52.108;9.358;2023-08-07T07:09:35;14.20;98.60
64987;DHT22;67903;52.108;9.358;2023-08-07T07:12:20;14.10;99.80
64987;DHT22;67903;52.108;9.358;2023-08-07T07:15:06;14.20;99.70
64987;DHT22;67903;52.108;9.358;2023-08-07T07:17:52;14.30;99.70
64987;DHT22;67903;52.108;9.358;2023-08-07T07:20:37;14.30;99.50
64987;DHT22;67903;52.108;9.358;2023-08-07T07:23:23;14.40;98.70
64987;DHT22;67903;52.108;9.358;2023-08-07T07:26:08;14.50;97.60
64987;DHT22;67903;52.108;9.358;2023-08-07T07:28:53;14.60;97.20
64987;DHT22;67903;52.108;9.358;2023-08-07T07:31:39;14.80;96.60
64987;DHT22;67903;52.108;9.358;2023-08-07T07:34:25;14.90;97.70
64987;DHT22;67903;52.108;9.358;2023-08-07T07:37:10;15.10;96.50
64987;DHT22;67903;52.108;9.358;2023-08-07T07:39:56;15.20;92.30
64987;DHT22;67903;52.108;9.358;2023-08-07T07:42:41;15.30;89.10
64987;DHT22;67903;52.108;9.358;2023-08-07T07:45:27;15.40;86.20
64987;DHT22;67903;52.108;9.358;2023-08-07T07:48:13;15.60;87.30
64987;DHT22;67903;52.108;9.358;2023-08-07T07:50:59;15.60;85.50
64987;DHT22;67903;52.108;9.358;2023-08-07T07:53:45;15.50;85.30
64987;DHT22;67903;52.108;9.358;2023-08-07T07:56:42;15.40;85.70
64987;DHT22;67903;52.108;9.358;2023-08-07T07:59:29;15.40;85.50
64987;DHT22;67903;52.108;9.358;2023-08-07T08:02:14;15.60;84.00
64987;DHT22;67903;52.108;9.358;2023-08-07T08:05:01;15.50;85.00
64987;DHT22;67903;52.108;9.358;2023-08-07T08:07:47;15.60;85.10
64987;DHT22;67903;52.108;9.358;2023-08-07T08:10:32;15.60;84.60
64987;DHT22;67903;52.108;9.358;2023-08-07T08:13:18;15.60;84.20
64987;DHT22;67903;52.108;9.358;2023-08-07T08:16:04;15.40;85.80
64987;DHT22;67903;52.108;9.358;2023-08-07T08:18:49;15.50;85.20
64987;DHT22;67903;52.108;9.358;2023-08-07T08:21:35;15.30;86.60
64987;DHT22;67903;52.108;9.358;2023-08-07T08:24:20;15.50;86.00
64987;DHT22;67903;52.108;9.358;2023-08-07T08:27:06;15.60;84.60
64987;DHT22;67903;52.108;9.358;2023-08-07T08:29:52;15.60;83.90
64987;DHT22;67903;52.108;9.358;2023-08-07T08:32:38;15.80;84.00
64987;DHT22;67903;52.108;9.358;2023-08-07T08:35:24;15.80;83.80
64987;DHT22;67903;52.108;9.358;2023-08-07T08:38:10;15.80;83.40
64987;DHT22;67903;52.108;9.358;2023-08-07T08:40:56;16.00;82.40
64987;DHT22;67903;52.108;9.358;2023-08-07T08:43:43;16.10;81.30
64987;DHT22;67903;52.108;9.358;2023-08-07T08:46:31;16.20;81.40
64987;DHT22;67903;52.108;9.358;2023-08-07T08:49:23;16.20;81.00
64987;DHT22;67903;52.108;9.358;2023-08-07T08:52:13;16.00;80.70
64987;DHT22;67903;52.108;9.358;2023-08-07T08:54:58;16.20;82.40
64987;DHT22;67903;52.108;9.358;2023-08-07T08:57:44;16.40;80.20
64987;DHT22;67903;52.108;9.358;2023-08-07T09:00:30;16.10;80.40
64987;DHT22;67903;52.108;9.358;2023-08-07T09:03:17;16.10;81.10
64987;DHT22;67903;52.108;9.358;2023-08-07T09:06:04;16.20;82.90
64987;DHT22;67903;52.108;9.358;2023-08-07T09:08:53;16.00;82.50
64987;DHT22;67903;52.108;9.358;2023-08-07T09:11:40;15.80;84.20
64987;DHT22;67903;52.108;9.358;2023-08-07T09:14:27;15.30;85.40
64987;DHT22;67903;52.108;9.358;2023-08-07T09:17:16;15.30;86.40
64987;DHT22;67903;52.108;9.358;2023-08-07T09:20:02;15.50;84.40
64987;DHT22;67903;52.108;9.358;2023-08-07T09:22:49;15.60;82.60
64987;DHT22;67903;52.108;9.358;2023-08-07T09:25:35;15.70;84.10
64987;DHT22;67903;52.108;9.358;2023-08-07T09:28:20;15.80;83.00
64987;DHT22;67903;52.108;9.358;2023-08-07T09:31:06;15.80;82.30
64987;DHT22;67903;52.108;9.358;2023-08-07T09:33:54;15.70;81.50
64987;DHT22;67903;52.108;9.358;2023-08-07T09:36:41;15.60;81.10
64987;DHT22;67903;52.108;9.358;2023-08-07T09:39:26;15.60;82.60
64987;DHT22;67903;52.108;9.358;2023-08-07T09:42:16;15.60;81.60
64987;DHT22;67903;52.108;9.358;2023-08-07T09:45:02;15.50;81.50
64987;DHT22;67903;52.108;9.358;2023-08-07T09:48:00;15.80;81.00
64987;DHT22;67903;52.108;9.358;2023-08-07T09:50:46;16.00;79.70
64987;DHT22;67903;52.108;9.358;2023-08-07T09:53:31;16.20;79.20
64987;DHT22;67903;52.108;9.358;2023-08-07T09:56:17;16.50;76.70
64987;DHT22;67903;52.108;9.358;2023-08-07T09:59:03;16.50;77.70
64987;DHT22;67903;52.108;9.358;2023-08-07T10:01:50;16.30;77.80
64987;DHT22;67903;52.108;9.358;2023-08-07T10:04:36;16.00;80.20
64987;DHT22;67903;52.108;9.358;2023-08-07T10:07:22;15.60;83.30
64987;DHT22;67903;52.108;9.358;2023-08-07T10:10:09;14.80;84.90
64987;DHT22;67903;52.108;9.358;2023-08-07T10:12:55;14.20;88.40
64987;DHT22;67903;52.108;9.358;2023-08-07T10:15:42;14.00;91.50
64987;DHT22;67903;52.108;9.358;2023-08-07T10:18:28;14.30;91.20
64987;DHT22;67903;52.108;9.358;2023-08-07T10:21:14;14.60;91.10
64987;DHT22;67903;52.108;9.358;2023-08-07T10:24:03;15.00;90.60
64987;DHT22;67903;52.108;9.358;2023-08-07T10:26:48;15.30;88.10
64987;DHT22;67903;52.108;9.358;2023-08-07T10:29:35;15.60;86.00
64987;DHT22;67903;52.108;9.358;2023-08-07T10:32:22;15.60;84.00
64987;DHT22;67903;52.108;9.358;2023-08-07T10:35:09;15.80;83.70
64987;DHT22;67903;52.108;9.358;2023-08-07T10:37:54;15.90;82.80
64987;DHT22;67903;52.108;9.358;2023-08-07T10:40:59;15.80;82.70
64987;DHT22;67903;52.108;9.358;2023-08-07T10:43:48;16.00;81.00
64987;DHT22;67903;52.108;9.358;2023-08-07T10:46:53;16.00;80.50
64987;DHT22;67903;52.108;9.358;2023-08-07T10:49:41;16.20;79.80
64987;DHT22;67903;52.108;9.358;2023-08-07T10:52:27;16.50;78.40
64987;DHT22;67903;52.108;9.358;2023-08-07T10:55:14;16.50;78.20
64987;DHT22;67903;52.108;9.358;2023-08-07T10:58:03;16.20;79.30
64987;DHT22;67903;52.108;9.358;2023-08-07T11:00:49;16.10;81.40
64987;DHT22;67903;52.108;9.358;2023-08-07T11:03:36;16.20;81.10
64987;DHT22;67903;52.108;9.358;2023-08-07T11:06:32;16.20;77.60
64987;DHT22;67903;52.108;9.358;2023-08-07T11:09:18;16.10;78.40
64987;DHT22;67903;52.108;9.358;2023-08-07T11:12:04;16.10;75.50
64987;DHT22;67903;52.108;9.358;2023-08-07T11:14:49;16.50;73.10
64987;DHT22;67903;52.108;9.358;2023-08-07T11:17:35;16.40;73.50
64987;DHT22;67903;52.108;9.358;2023-08-07T11:20:21;16.50;71.70
64987;DHT22;67903;52.108;9.358;2023-08-07T11:23:06;16.10;71.60
64987;DHT22;67903;52.108;9.358;2023-08-07T11:25:52;16.20;72.30
64987;DHT22;67903;52.108;9.358;2023-08-07T11:28:38;16.10;71.40
64987;DHT22;67903;52.108;9.358;2023-08-07T11:31:24;16.10;72.10
64987;DHT22;67903;52.108;9.358;2023-08-07T11:34:11;16.40;71.50
64987;DHT22;67903;52.108;9.358;2023-08-07T11:36:56;16.40;71.60
64987;DHT22;67903;52.108;9.358;2023-08-07T11:39:44;16.60;71.50
64987;DHT22;67903;52.108;9.358;2023-08-07T11:42:29;16.90;71.70
64987;DHT22;67903;52.108;9.358;2023-08-07T11:45:15;17.00;71.50
64987;DHT22;67903;52.108;9.358;2023-08-07T11:48:02;16.70;72.00
64987;DHT22;67903;52.108;9.358;2023-08-07T11:50:47;16.40;73.20
64987;DHT22;67903;52.108;9.358;2023-08-07T11:53:35;16.20;72.20
64987;DHT22;67903;52.108;9.358;2023-08-07T11:56:21;16.70;70.70
64987;DHT22;67903;52.108;9.358;2023-08-07T11:59:06;17.00;69.60
64987;DHT22;67903;52.108;9.358;2023-08-07T12:01:52;17.30;66.30
64987;DHT22;67903;52.108;9.358;2023-08-07T12:04:38;17.20;65.50
64987;DHT22;67903;52.108;9.358;2023-08-07T12:07:24;17.40;65.50
64987;DHT22;67903;52.108;9.358;2023-08-07T12:10:13;17.20;64.30
64987;DHT22;67903;52.108;9.358;2023-08-07T12:12:59;16.70;64.00
64987;DHT22;67903;52.108;9.358;2023-08-07T12:15:56;16.80;63.90
64987;DHT22;67903;52.108;9.358;2023-08-07T12:18:50;16.90;62.80
64987;DHT22;67903;52.108;9.358;2023-08-07T12:21:35;16.90;64.30
64987;DHT22;67903;52.108;9.358;2023-08-07T12:24:22;17.10;64.50
64987;DHT22;67903;52.108;9.358;2023-08-07T12:27:08;17.20;64.60
64987;DHT22;67903;52.108;9.358;2023-08-07T12:29:54;17.20;64.40
64987;DHT22;67903;52.108;9.358;2023-08-07T12:32:40;17.20;64.60
64987;DHT22;67903;52.108;9.358;2023-08-07T12:35:25;17.10;64.50
64987;DHT22;67903;52.108;9.358;2023-08-07T12:38:11;17.20;65.70
64987;DHT22;67903;52.108;9.358;2023-08-07T12:40:58;17.00;65.00
64987;DHT22;67903;52.108;9.358;2023-08-07T12:43:44;17.10;64.30
64987;DHT22;67903;52.108;9.358;2023-08-07T12:46:29;17.30;64.90
64987;DHT22;67903;52.108;9.358;2023-08-07T12:49:18;17.10;64.20
64987;DHT22;67903;52.108;9.358;2023-08-07T12:52:04;17.00;65.70
64987;DHT22;67903;52.108;9.358;2023-08-07T12:54:50;16.90;65.80
64987;DHT22;67903;52.108;9.358;2023-08-07T12:57:35;16.90;66.40
64987;DHT22;67903;52.108;9.358;2023-08-07T13:00:22;17.20;67.20
64987;DHT22;67903;52.108;9.358;2023-08-07T13:03:08;17.50;65.50
64987;DHT22;67903;52.108;9.358;2023-08-07T13:05:53;17.50;63.50
64987;DHT22;67903;52.108;9.358;2023-08-07T13:08:39;17.50;63.00
64987;DHT22;67903;52.108;9.358;2023-08-07T13:11:24;17.60;62.70
64987;DHT22;67903;52.108;9.358;2023-08-07T13:14:10;18.20;61.70
64987;DHT22;67903;52.108;9.358;2023-08-07T13:16:55;17.90;60.70
64987;DHT22;67903;52.108;9.358;2023-08-07T13:19:41;17.80;60.00
64987;DHT22;67903;52.108;9.358;2023-08-07T13:22:27;17.80;59.60
64987;DHT22;67903;52.108;9.358;2023-08-07T13:25:13;18.10;59.60
64987;DHT22;67903;52.108;9.358;2023-08-07T13:28:00;18.40;57.30
64987;DHT22;67903;52.108;9.358;2023-08-07T13:30:49;18.10;59.00
64987;DHT22;67903;52.108;9.358;2023-08-07T13:33:35;18.00;58.40
64987;DHT22;67903;52.108;9.358;2023-08-07T13:36:21;18.00;58.70
64987;DHT22;67903;52.108;9.358;2023-08-07T13:39:07;18.30;57.40
64987;DHT22;67903;52.108;9.358;2023-08-07T13:41:54;18.00;57.80
64987;DHT22;67903;52.108;9.358;2023-08-07T13:44:40;18.00;58.50
64987;DHT22;67903;52.108;9.358;2023-08-07T13:47:25;18.00;58.20
64987;DHT22;67903;52.108;9.358;2023-08-07T13:50:11;18.00;56.90
64987;DHT22;67903;52.108;9.358;2023-08-07T13:52:58;18.20;56.10
64987;DHT22;67903;52.108;9.358;2023-08-07T13:55:59;18.20;55.50
64987;DHT22;67903;52.108;9.358;2023-08-07T13:58:44;18.10;55.80
64987;DHT22;67903;52.108;9.358;2023-08-07T14:01:30;18.20;55.80
64987;DHT22;67903;52.108;9.358;2023-08-07T14:04:16;18.10;55.30
64987;DHT22;67903;52.108;9.358;2023-08-07T14:07:02;18.00;56.30
64987;DHT22;67903;52.108;9.358;2023-08-07T14:09:48;18.00;56.60
64987;DHT22;67903;52.108;9.358;2023-08-07T14:12:34;18.50;55.90
64987;DHT22;67903;52.108;9.358;2023-08-07T14:15:19;18.30;55.70
64987;DHT22;67903;52.108;9.358;2023-08-07T14:18:05;18.20;57.80
64987;DHT22;67903;52.108;9.358;2023-08-07T14:20:51;18.80;55.10
64987;DHT22;67903;52.108;9.358;2023-08-07T14:23:47;19.10;54.00
64987;DHT22;67903;52.108;9.358;2023-08-07T14:26:33;19.00;53.30
64987;DHT22;67903;52.108;9.358;2023-08-07T14:29:18;18.70;53.70
64987;DHT22;67903;52.108;9.358;2023-08-07T14:32:05;18.40;55.10
64987;DHT22;67903;52.108;9.358;2023-08-07T14:34:52;18.20;55.10
64987;DHT22;67903;52.108;9.358;2023-08-07T14:37:37;18.30;54.40
64987;DHT22;67903;52.108;9.358;2023-08-07T14:40:23;19.30;52.30
64987;DHT22;67903;52.108;9.358;2023-08-07T14:43:08;20.00;51.00
64987;DHT22;67903;52.108;9.358;2023-08-07T14:45:55;20.30;49.70
64987;DHT22;67903;52.108;9.358;2023-08-07T14:48:40;20.70;49.10
64987;DHT22;67903;52.108;9.358;2023-08-07T14:51:26;21.00;48.80
64987;DHT22;67903;52.108;9.358;2023-08-07T14:54:11;21.00;47.60
64987;DHT22;67903;52.108;9.358;2023-08-07T14:56:57;21.30;47.10
64987;DHT22;67903;52.108;9.358;2023-08-07T14:59:44;21.40;46.20
64987;DHT22;67903;52.108;9.358;2023-08-07T15:02:29;21.80;45.80
64987;DHT22;67903;52.108;9.358;2023-08-07T15:05:15;21.70;47.00
64987;DHT22;67903;52.108;9.358;2023-08-07T15:08:01;22.30;45.10
64987;DHT22;67903;52.108;9.358;2023-08-07T15:10:47;22.20;44.40
64987;DHT22;67903;52.108;9.358;2023-08-07T15:13:32;22.50;44.10
64987;DHT22;67903;52.108;9.358;2023-08-07T15:16:18;22.80;45.40
64987;DHT22;67903;52.108;9.358;2023-08-07T15:19:04;21.90;45.50
64987;DHT22;67903;52.108;9.358;2023-08-07T15:21:52;20.80;47.70
64987;DHT22;67903;52.108;9.358;2023-08-07T15:24:38;20.00;48.50
64987;DHT22;67903;52.108;9.358;2023-08-07T15:27:23;19.30;49.30
64987;DHT22;67903;52.108;9.358;2023-08-07T15:30:09;19.10;51.30
64987;DHT22;67903;52.108;9.358;2023-08-07T15:32:55;18.80;51.90
64987;DHT22;67903;52.108;9.358;2023-08-07T15:35:41;18.50;52.30
64987;DHT22;67903;52.108;9.358;2023-08-07T15:38:27;18.20;53.70
64987;DHT22;67903;52.108;9.358;2023-08-07T15:41:13;17.60;56.90
64987;DHT22;67903;52.108;9.358;2023-08-07T15:43:59;17.20;58.00
64987;DHT22;67903;52.108;9.358;2023-08-07T15:46:44;16.90;59.80
64987;DHT22;67903;52.108;9.358;2023-08-07T15:49:30;16.80;60.50
64987;DHT22;67903;52.108;9.358;2023-08-07T15:52:17;16.80;61.00
64987;DHT22;67903;52.108;9.358;2023-08-07T15:55:03;16.80;61.50
64987;DHT22;67903;52.108;9.358;2023-08-07T15:57:49;16.70;62.40
64987;DHT22;67903;52.108;9.358;2023-08-07T16:00:34;16.60;62.60
64987;DHT22;67903;52.108;9.358;2023-08-07T16:03:20;16.50;63.00
64987;DHT22;67903;52.108;9.358;2023-08-07T16:06:07;16.50;63.40
64987;DHT22;67903;52.108;9.358;2023-08-07T16:08:53;16.60;63.30
64987;DHT22;67903;52.108;9.358;2023-08-07T16:11:42;16.60;62.40
64987;DHT22;67903;52.108;9.358;2023-08-07T16:14:28;16.60;62.80
64987;DHT22;67903;52.108;9.358;2023-08-07T16:17:18;16.50;63.30
64987;DHT22;67903;52.108;9.358;2023-08-07T16:20:04;16.40;63.50
64987;DHT22;67903;52.108;9.358;2023-08-07T16:22:50;16.30;64.10
64987;DHT22;67903;52.108;9.358;2023-08-07T16:25:36;16.40;65.50
64987;DHT22;67903;52.108;9.358;2023-08-07T16:28:21;16.10;66.90
64987;DHT22;67903;52.108;9.358;2023-08-07T16:31:07;15.90;67.10
64987;DHT22;67903;52.108;9.358;2023-08-07T16:33:52;15.90;67.70
64987;DHT22;67903;52.108;9.358;2023-08-07T16:36:38;15.80;67.90
64987;DHT22;67903;52.108;9.358;2023-08-07T16:39:24;15.80;68.30
64987;DHT22;67903;52.108;9.358;2023-08-07T16:42:09;15.80;67.50
64987;DHT22;67903;52.108;9.358;2023-08-07T16:44:55;16.10;66.70
64987;DHT22;67903;52.108;9.358;2023-08-07T16:47:40;16.80;64.70
64987;DHT22;67903;52.108;9.358;2023-08-07T16:50:26;16.60;64.00
64987;DHT22;67903;52.108;9.358;2023-08-07T16:53:13;16.90;63.30
64987;DHT22;67903;52.108;9.358;2023-08-07T16:55:58;17.30;62.40
64987;DHT22;67903;52.108;9.358;2023-08-07T16:58:44;17.60;62.20
64987;DHT22;67903;52.108;9.358;2023-08-07T17:01:33;17.50;61.60
64987;DHT22;67903;52.108;9.358;2023-08-07T17:04:19;17.30;61.60
64987;DHT22;67903;52.108;9.358;2023-08-07T17:07:07;16.80;62.50
64987;DHT22;67903;52.108;9.358;2023-08-07T17:09:54;16.60;63.10
64987;DHT22;67903;52.108;9.358;2023-08-07T17:12:40;16.40;63.20
64987;DHT22;67903;52.108;9.358;2023-08-07T17:15:26;16.50;62.70
64987;DHT22;67903;52.108;9.358;2023-08-07T17:18:11;16.60;62.80
64987;DHT22;67903;52.108;9.358;2023-08-07T17:20:58;16.70;62.70
64987;DHT22;67903;52.108;9.358;2023-08-07T17:23:43;16.70;62.70
64987;DHT22;67903;52.108;9.358;2023-08-07T17:26:29;16.70;63.20
64987;DHT22;67903;52.108;9.358;2023-08-07T17:29:15;16.60;62.50